sensor_id;sensor_type;location;lat;lon;timestamp;pressure;altitude;pressure_sealevel;temperature;humidity
54122;BME280;40029;58.708;50.190;2023-02-23T00:01:16;98566.56;;;-12.44;39.83
54122;BME280;40029;58.708;50.190;2023-02-23T00:04:07;98606.38;;;-12.28;39.71
54122;BME280;40029;58.708;50.190;2023-02-23T00:06:38;98618.31;;;-12.22;39.88
54122;BME280;40029;58.708;50.190;2023-02-23T00:09:10;98565.28;;;-12.57;39.76
54122;BME280;40029;58.708;50.190;2023-02-23T00:12:05;98603.53;;;-12.39;39.51
54122;BME280;40029;58.708;50.190;2023-02-23T00:14:39;98559.91;;;-12.68;39.87
54122;BME280;40029;58.708;50.190;2023-02-23T00:17:11;98501.59;;;-13.10;40.06
54122;BME280;40029;58.708;50.190;2023-02-23T00:19:46;98562.03;;;-12.78;40.11
54122;BME280;40029;58.708;50.190;2023-02-23T00:22:38;98602.16;;;-12.54;39.71
54122;BME280;40029;58.708;50.190;2023-02-23T00:25:10;98557.72;;;-12.82;39.22
54122;BME280;40029;58.708;50.190;2023-02-23T00:27:41;98595.28;;;-12.60;39.29
54122;BME280;40029;58.708;50.190;2023-02-23T00:30:15;98570.34;;;-12.79;39.72
54122;BME280;40029;58.708;50.190;2023-02-23T00:32:52;98610.06;;;-12.68;39.34
54122;BME280;40029;58.708;50.190;2023-02-23T00:35:23;98612.16;;;-12.56;39.38
54122;BME280;40029;58.708;50.190;2023-02-23T00:37:54;98563.22;;;-12.93;38.84
54122;BME280;40029;58.708;50.190;2023-02-23T00:40:26;98547.88;;;-13.00;39.14
54122;BME280;40029;58.708;50.190;2023-02-23T00:43:15;98562.19;;;-12.98;39.05
54122;BME280;40029;58.708;50.190;2023-02-23T00:45:48;98605.69;;;-12.73;39.00
54122;BME280;40029;58.708;50.190;2023-02-23T00:48:19;98560.06;;;-13.11;39.25
54122;BME280;40029;58.708;50.190;2023-02-23T00:51:03;98552.53;;;-13.11;39.15
54122;BME280;40029;58.708;50.190;2023-02-23T00:53:35;98613.47;;;-12.90;38.77
54122;BME280;40029;58.708;50.190;2023-02-23T00:56:08;98502.63;;;-13.53;39.19
54122;BME280;40029;58.708;50.190;2023-02-23T00:58:41;98594.56;;;-13.04;38.58
54122;BME280;40029;58.708;50.190;2023-02-23T01:01:13;98590.88;;;-13.14;38.51
54122;BME280;40029;58.708;50.190;2023-02-23T01:03:46;98603.03;;;-13.00;38.44
54122;BME280;40029;58.708;50.190;2023-02-23T01:06:18;98609.44;;;-13.08;38.07
54122;BME280;40029;58.708;50.190;2023-02-23T01:08:51;98565.81;;;-13.38;38.45
54122;BME280;40029;58.708;50.190;2023-02-23T01:11:27;98605.88;;;-13.15;38.33
54122;BME280;40029;58.708;50.190;2023-02-23T01:13:59;98508.16;;;-13.84;38.26
54122;BME280;40029;58.708;50.190;2023-02-23T01:16:33;98517.41;;;-13.81;38.19
54122;BME280;40029;58.708;50.190;2023-02-23T01:19:05;98613.75;;;-13.28;37.96
54122;BME280;40029;58.708;50.190;2023-02-23T01:21:38;98541.91;;;-13.74;38.52
54122;BME280;40029;58.708;50.190;2023-02-23T01:24:11;98565.63;;;-13.65;38.93
54122;BME280;40029;58.708;50.190;2023-02-23T01:26:44;98603.91;;;-13.46;38.62
54122;BME280;40029;58.708;50.190;2023-02-23T01:29:16;98609.34;;;-13.34;39.13
54122;BME280;40029;58.708;50.190;2023-02-23T01:31:48;98598.03;;;-13.47;39.37
54122;BME280;40029;58.708;50.190;2023-02-23T01:34:22;98605.16;;;-13.35;39.21
54122;BME280;40029;58.708;50.190;2023-02-23T01:36:54;98600.22;;;-13.33;39.23
54122;BME280;40029;58.708;50.190;2023-02-23T01:39:25;98544.03;;;-13.63;39.57
54122;BME280;40029;58.708;50.190;2023-02-23T01:41:56;98539.00;;;-13.63;39.25
54122;BME280;40029;58.708;50.190;2023-02-23T01:47:02;98540.72;;;-13.62;39.41
54122;BME280;40029;58.708;50.190;2023-02-23T01:49:52;98585.06;;;-13.37;39.18
54122;BME280;40029;58.708;50.190;2023-02-23T01:52:23;98535.69;;;-13.62;39.35
54122;BME280;40029;58.708;50.190;2023-02-23T01:54:55;98601.31;;;-13.25;39.43
54122;BME280;40029;58.708;50.190;2023-02-23T01:57:27;98612.16;;;-13.26;39.16
54122;BME280;40029;58.708;50.190;2023-02-23T01:59:58;98606.28;;;-13.27;39.17
54122;BME280;40029;58.708;50.190;2023-02-23T02:02:29;98550.56;;;-13.66;39.08
54122;BME280;40029;58.708;50.190;2023-02-23T02:05:03;98550.78;;;-13.60;39.38
54122;BME280;40029;58.708;50.190;2023-02-23T02:07:41;98596.91;;;-13.32;38.65
54122;BME280;40029;58.708;50.190;2023-02-23T02:10:15;98547.59;;;-13.56;39.16
54122;BME280;40029;58.708;50.190;2023-02-23T02:12:54;98544.06;;;-13.61;38.91
54122;BME280;40029;58.708;50.190;2023-02-23T02:15:30;98602.09;;;-13.28;38.89
54122;BME280;40029;58.708;50.190;2023-02-23T02:18:18;98605.16;;;-13.35;38.41
54122;BME280;40029;58.708;50.190;2023-02-23T02:41:33;98617.16;;;-13.49;38.85
54122;BME280;40029;58.708;50.190;2023-02-23T02:44:26;98612.84;;;-13.53;38.71
54122;BME280;40029;58.708;50.190;2023-02-23T02:47:06;98594.88;;;-13.64;39.00
54122;BME280;40029;58.708;50.190;2023-02-23T02:50:08;98570.84;;;-13.81;38.65
54122;BME280;40029;58.708;50.190;2023-02-23T02:52:57;98621.75;;;-13.59;38.73
54122;BME280;40029;58.708;50.190;2023-02-23T02:55:32;98566.84;;;-13.98;38.80
54122;BME280;40029;58.708;50.190;2023-02-23T02:58:07;98591.31;;;-13.91;38.65
54122;BME280;40029;58.708;50.190;2023-02-23T03:00:44;98563.31;;;-14.03;38.64
54122;BME280;40029;58.708;50.190;2023-02-23T03:06:38;98604.38;;;-13.98;38.40
54122;BME280;40029;58.708;50.190;2023-02-23T03:09:38;98636.78;;;-13.80;38.55
54122;BME280;40029;58.708;50.190;2023-02-23T03:16:40;98575.28;;;-14.38;38.67
54122;BME280;40029;58.708;50.190;2023-02-23T03:19:39;98630.16;;;-14.01;38.90
54122;BME280;40029;58.708;50.190;2023-02-23T03:22:37;98633.34;;;-14.05;38.37
54122;BME280;40029;58.708;50.190;2023-02-23T03:25:52;98572.34;;;-14.49;38.64
54122;BME280;40029;58.708;50.190;2023-02-23T03:29:04;98571.66;;;-14.45;38.31
54122;BME280;40029;58.708;50.190;2023-02-23T03:32:23;98624.88;;;-14.07;38.43
54122;BME280;40029;58.708;50.190;2023-02-23T03:35:32;98628.38;;;-14.03;38.90
54122;BME280;40029;58.708;50.190;2023-02-23T03:41:22;98581.44;;;-14.30;38.08
54122;BME280;40029;58.708;50.190;2023-02-23T03:44:18;98567.59;;;-14.43;38.03
54122;BME280;40029;58.708;50.190;2023-02-23T03:47:13;98569.94;;;-14.46;38.42
54122;BME280;40029;58.708;50.190;2023-02-23T03:50:06;98621.66;;;-14.25;38.49
54122;BME280;40029;58.708;50.190;2023-02-23T03:52:59;98576.34;;;-14.73;39.20
54122;BME280;40029;58.708;50.190;2023-02-23T03:56:10;98614.25;;;-14.43;38.87
54122;BME280;40029;58.708;50.190;2023-02-23T03:59:02;98620.91;;;-14.44;38.94
54122;BME280;40029;58.708;50.190;2023-02-23T04:01:54;98609.53;;;-14.36;39.21
54122;BME280;40029;58.708;50.190;2023-02-23T04:04:46;98627.28;;;-14.31;38.87
54122;BME280;40029;58.708;50.190;2023-02-23T04:07:37;98614.97;;;-14.46;39.27
54122;BME280;40029;58.708;50.190;2023-02-23T04:10:29;98587.06;;;-14.56;38.68
54122;BME280;40029;58.708;50.190;2023-02-23T04:13:23;98570.94;;;-14.63;38.57
54122;BME280;40029;58.708;50.190;2023-02-23T04:16:00;98623.78;;;-14.34;38.62
54122;BME280;40029;58.708;50.190;2023-02-23T04:18:50;98577.63;;;-14.62;38.77
54122;BME280;40029;58.708;50.190;2023-02-23T04:21:21;98529.09;;;-14.87;38.66
54122;BME280;40029;58.708;50.190;2023-02-23T04:23:52;98570.09;;;-14.64;38.73
54122;BME280;40029;58.708;50.190;2023-02-23T04:26:23;98619.69;;;-14.32;39.08
54122;BME280;40029;58.708;50.190;2023-02-23T04:29:13;98562.97;;;-14.54;39.24
54122;BME280;40029;58.708;50.190;2023-02-23T04:31:45;98617.63;;;-14.22;38.92
54122;BME280;40029;58.708;50.190;2023-02-23T04:34:17;98569.78;;;-14.50;38.76
54122;BME280;40029;58.708;50.190;2023-02-23T04:36:48;98579.34;;;-14.40;38.59
54122;BME280;40029;58.708;50.190;2023-02-23T04:39:21;98568.47;;;-14.41;38.84
54122;BME280;40029;58.708;50.190;2023-02-23T04:41:52;98619.03;;;-14.07;38.75
54122;BME280;40029;58.708;50.190;2023-02-23T04:44:41;98557.56;;;-14.43;39.28
54122;BME280;40029;58.708;50.190;2023-02-23T04:47:13;98546.81;;;-14.40;38.90
54122;BME280;40029;58.708;50.190;2023-02-23T04:49:45;98571.06;;;-14.18;39.28
54122;BME280;40029;58.708;50.190;2023-02-23T04:52:34;98561.06;;;-14.18;38.71
54122;BME280;40029;58.708;50.190;2023-02-23T04:55:13;98572.91;;;-14.14;38.85
54122;BME280;40029;58.708;50.190;2023-02-23T04:57:46;98630.84;;;-13.84;39.32
54122;BME280;40029;58.708;50.190;2023-02-23T05:00:17;98635.94;;;-13.81;39.19
54122;BME280;40029;58.708;50.190;2023-02-23T05:02:49;98613.19;;;-13.87;39.21
54122;BME280;40029;58.708;50.190;2023-02-23T05:05:20;98620.38;;;-13.74;38.90
54122;BME280;40029;58.708;50.190;2023-02-23T05:08:10;98587.78;;;-13.96;38.87
54122;BME280;40029;58.708;50.190;2023-02-23T05:10:41;98623.91;;;-13.69;38.77
54122;BME280;40029;58.708;50.190;2023-02-23T05:13:12;98623.81;;;-13.72;39.04
54122;BME280;40029;58.708;50.190;2023-02-23T05:15:43;98609.16;;;-13.83;39.43
54122;BME280;40029;58.708;50.190;2023-02-23T05:18:14;98622.25;;;-13.68;39.24
54122;BME280;40029;58.708;50.190;2023-02-23T05:20:46;98617.91;;;-13.72;39.37
54122;BME280;40029;58.708;50.190;2023-02-23T05:23:18;98597.13;;;-13.71;39.18
54122;BME280;40029;58.708;50.190;2023-02-23T05:25:49;98616.00;;;-13.57;39.17
54122;BME280;40029;58.708;50.190;2023-02-23T05:28:20;98624.13;;;-13.42;38.91
54122;BME280;40029;58.708;50.190;2023-02-23T05:30:52;98560.78;;;-13.82;39.11
54122;BME280;40029;58.708;50.190;2023-02-23T05:33:23;98626.84;;;-13.36;39.47
54122;BME280;40029;58.708;50.190;2023-02-23T05:35:54;98602.47;;;-13.40;39.22
54122;BME280;40029;58.708;50.190;2023-02-23T05:38:26;98588.53;;;-13.33;38.88
54122;BME280;40029;58.708;50.190;2023-02-23T05:40:57;98581.75;;;-13.36;39.04
54122;BME280;40029;58.708;50.190;2023-02-23T05:43:28;98628.34;;;-12.94;39.33
54122;BME280;40029;58.708;50.190;2023-02-23T05:45:59;98579.69;;;-13.23;39.24
54122;BME280;40029;58.708;50.190;2023-02-23T05:48:31;98628.72;;;-12.83;39.25
54122;BME280;40029;58.708;50.190;2023-02-23T05:51:03;98603.59;;;-12.85;38.89
54122;BME280;40029;58.708;50.190;2023-02-23T05:53:35;98637.13;;;-12.59;38.92
54122;BME280;40029;58.708;50.190;2023-02-23T05:56:09;98644.13;;;-12.50;39.07
54122;BME280;40029;58.708;50.190;2023-02-23T05:58:41;98622.06;;;-12.35;38.44
54122;BME280;40029;58.708;50.190;2023-02-23T06:01:12;98610.91;;;-12.43;38.99
54122;BME280;40029;58.708;50.190;2023-02-23T06:03:44;98581.69;;;-12.41;38.77
54122;BME280;40029;58.708;50.190;2023-02-23T06:06:16;98566.34;;;-12.50;38.86
54122;BME280;40029;58.708;50.190;2023-02-23T06:08:48;98560.97;;;-12.36;39.04
54122;BME280;40029;58.708;50.190;2023-02-23T06:11:20;98594.94;;;-12.20;39.05
54122;BME280;40029;58.708;50.190;2023-02-23T06:13:51;98575.13;;;-12.12;38.66
54122;BME280;40029;58.708;50.190;2023-02-23T06:16:22;98581.75;;;-12.14;38.79
54122;BME280;40029;58.708;50.190;2023-02-23T06:18:54;98606.00;;;-11.89;38.43
54122;BME280;40029;58.708;50.190;2023-02-23T06:21:25;98617.28;;;-11.75;38.79
54122;BME280;40029;58.708;50.190;2023-02-23T06:23:56;98623.34;;;-11.68;38.26
54122;BME280;40029;58.708;50.190;2023-02-23T06:26:30;98589.34;;;-11.86;38.55
54122;BME280;40029;58.708;50.190;2023-02-23T06:29:02;98640.47;;;-11.56;39.31
54122;BME280;40029;58.708;50.190;2023-02-23T06:31:34;98641.84;;;-11.66;38.65
54122;BME280;40029;58.708;50.190;2023-02-23T06:34:05;98594.38;;;-11.86;38.56
54122;BME280;40029;58.708;50.190;2023-02-23T06:36:36;98639.63;;;-11.57;38.77
54122;BME280;40029;58.708;50.190;2023-02-23T06:39:09;98635.41;;;-11.58;39.04
54122;BME280;40029;58.708;50.190;2023-02-23T06:41:41;98574.50;;;-11.78;39.06
54122;BME280;40029;58.708;50.190;2023-02-23T06:44:12;98630.00;;;-11.43;38.83
54122;BME280;40029;58.708;50.190;2023-02-23T06:47:03;98598.81;;;-11.50;38.81
54122;BME280;40029;58.708;50.190;2023-02-23T06:49:35;98639.72;;;-11.27;38.72
54122;BME280;40029;58.708;50.190;2023-02-23T06:52:08;98577.06;;;-11.48;38.35
54122;BME280;40029;58.708;50.190;2023-02-23T06:54:40;98586.31;;;-11.47;38.68
54122;BME280;40029;58.708;50.190;2023-02-23T06:57:11;98578.00;;;-11.46;38.91
54122;BME280;40029;58.708;50.190;2023-02-23T06:59:42;98618.88;;;-11.23;39.04
54122;BME280;40029;58.708;50.190;2023-02-23T07:02:14;98632.75;;;-11.07;38.70
54122;BME280;40029;58.708;50.190;2023-02-23T07:04:45;98570.88;;;-11.30;38.62
54122;BME280;40029;58.708;50.190;2023-02-23T07:07:16;98646.72;;;-10.88;39.00
54122;BME280;40029;58.708;50.190;2023-02-23T07:09:48;98576.84;;;-11.27;39.21
54122;BME280;40029;58.708;50.190;2023-02-23T07:12:19;98630.22;;;-10.78;38.89
54122;BME280;40029;58.708;50.190;2023-02-23T07:14:50;98587.16;;;-11.18;39.00
54122;BME280;40029;58.708;50.190;2023-02-23T07:17:22;98581.41;;;-11.14;38.90
54122;BME280;40029;58.708;50.190;2023-02-23T07:19:53;98598.69;;;-10.96;38.87
54122;BME280;40029;58.708;50.190;2023-02-23T07:22:43;98640.16;;;-10.53;38.62
54122;BME280;40029;58.708;50.190;2023-02-23T07:25:14;98592.41;;;-10.81;39.27
54122;BME280;40029;58.708;50.190;2023-02-23T07:28:04;98596.66;;;-10.49;38.81
54122;BME280;40029;58.708;50.190;2023-02-23T07:30:35;98600.13;;;-10.44;38.74
54122;BME280;40029;58.708;50.190;2023-02-23T07:33:06;98614.91;;;-10.23;38.88
54122;BME280;40029;58.708;50.190;2023-02-23T07:35:37;98594.56;;;-10.32;39.40
54122;BME280;40029;58.708;50.190;2023-02-23T07:38:08;98582.66;;;-10.38;39.09
54122;BME280;40029;58.708;50.190;2023-02-23T07:40:39;98588.00;;;-10.25;38.68
54122;BME280;40029;58.708;50.190;2023-02-23T07:43:11;98632.47;;;-9.91;38.93
54122;BME280;40029;58.708;50.190;2023-02-23T07:45:42;98638.88;;;-9.69;38.65
54122;BME280;40029;58.708;50.190;2023-02-23T07:48:31;98634.06;;;-9.60;38.03
54122;BME280;40029;58.708;50.190;2023-02-23T07:51:08;98578.94;;;-9.83;38.17
54122;BME280;40029;58.708;50.190;2023-02-23T07:53:40;98637.06;;;-9.40;37.88
54122;BME280;40029;58.708;50.190;2023-02-23T07:56:31;98613.34;;;-9.48;38.19
54122;BME280;40029;58.708;50.190;2023-02-23T07:59:02;98615.41;;;-9.31;38.10
54122;BME280;40029;58.708;50.190;2023-02-23T08:01:33;98563.78;;;-9.84;38.29
54122;BME280;40029;58.708;50.190;2023-02-23T08:04:05;98624.47;;;-9.39;38.22
54122;BME280;40029;58.708;50.190;2023-02-23T08:06:36;98617.25;;;-9.61;38.28
54122;BME280;40029;58.708;50.190;2023-02-23T08:09:08;98568.78;;;-9.48;38.15
54122;BME280;40029;58.708;50.190;2023-02-23T08:11:40;98624.16;;;-9.15;37.90
54122;BME280;40029;58.708;50.190;2023-02-23T08:14:11;98608.06;;;-9.21;37.72
54122;BME280;40029;58.708;50.190;2023-02-23T08:16:42;98573.94;;;-9.43;37.88
54122;BME280;40029;58.708;50.190;2023-02-23T08:19:14;98609.88;;;-9.14;37.99
54122;BME280;40029;58.708;50.190;2023-02-23T08:21:45;98627.59;;;-9.13;37.49
54122;BME280;40029;58.708;50.190;2023-02-23T08:24:16;98623.22;;;-9.20;37.91
54122;BME280;40029;58.708;50.190;2023-02-23T08:26:48;98611.47;;;-9.19;37.70
54122;BME280;40029;58.708;50.190;2023-02-23T08:29:20;98611.13;;;-9.35;37.83
54122;BME280;40029;58.708;50.190;2023-02-23T08:31:52;98603.91;;;-9.18;38.20
54122;BME280;40029;58.708;50.190;2023-02-23T08:34:42;98619.59;;;-8.93;38.00
54122;BME280;40029;58.708;50.190;2023-02-23T08:37:13;98617.16;;;-8.89;37.40
54122;BME280;40029;58.708;50.190;2023-02-23T08:39:45;98524.50;;;-9.37;37.55
54122;BME280;40029;58.708;50.190;2023-02-23T08:42:16;98603.84;;;-8.82;37.98
54122;BME280;40029;58.708;50.190;2023-02-23T08:44:47;98579.53;;;-8.76;37.40
54122;BME280;40029;58.708;50.190;2023-02-23T08:47:19;98537.91;;;-8.97;36.92
54122;BME280;40029;58.708;50.190;2023-02-23T08:49:54;98571.03;;;-8.80;37.22
54122;BME280;40029;58.708;50.190;2023-02-23T08:52:25;98551.66;;;-8.83;37.08
54122;BME280;40029;58.708;50.190;2023-02-23T08:54:56;98556.75;;;-8.79;36.90
54122;BME280;40029;58.708;50.190;2023-02-23T08:57:27;98569.34;;;-8.83;37.45
54122;BME280;40029;58.708;50.190;2023-02-23T08:59:59;98579.75;;;-8.66;37.07
54122;BME280;40029;58.708;50.190;2023-02-23T09:02:30;98535.59;;;-8.86;36.76
54122;BME280;40029;58.708;50.190;2023-02-23T09:05:01;98574.13;;;-8.51;36.51
54122;BME280;40029;58.708;50.190;2023-02-23T09:07:34;98542.00;;;-8.58;36.65
54122;BME280;40029;58.708;50.190;2023-02-23T09:10:07;98537.69;;;-8.64;36.78
54122;BME280;40029;58.708;50.190;2023-02-23T09:12:39;98575.06;;;-8.46;36.44
54122;BME280;40029;58.708;50.190;2023-02-23T09:15:11;98518.50;;;-8.54;36.68
54122;BME280;40029;58.708;50.190;2023-02-23T09:17:42;98539.16;;;-8.26;36.42
54122;BME280;40029;58.708;50.190;2023-02-23T09:20:15;98581.56;;;-8.10;36.12
54122;BME280;40029;58.708;50.190;2023-02-23T09:22:46;98544.25;;;-8.25;35.91
54122;BME280;40029;58.708;50.190;2023-02-23T09:25:22;98549.84;;;-7.91;36.07
54122;BME280;40029;58.708;50.190;2023-02-23T09:27:54;98546.91;;;-8.17;35.65
54122;BME280;40029;58.708;50.190;2023-02-23T09:30:29;98528.22;;;-8.27;35.94
54122;BME280;40029;58.708;50.190;2023-02-23T09:33:19;98571.88;;;-7.84;35.86
54122;BME280;40029;58.708;50.190;2023-02-23T09:35:50;98523.38;;;-7.60;35.45
54122;BME280;40029;58.708;50.190;2023-02-23T09:38:40;98581.25;;;-7.21;34.79
54122;BME280;40029;58.708;50.190;2023-02-23T09:49:43;98533.56;;;-7.54;34.92
54122;BME280;40029;58.708;50.190;2023-02-23T09:52:17;98578.41;;;-7.42;33.90
54122;BME280;40029;58.708;50.190;2023-02-23T09:54:50;98564.84;;;-7.47;34.56
54122;BME280;40029;58.708;50.190;2023-02-23T09:57:30;98521.47;;;-7.73;34.88
54122;BME280;40029;58.708;50.190;2023-02-23T10:00:25;98538.38;;;-7.69;34.01
54122;BME280;40029;58.708;50.190;2023-02-23T10:05:53;98561.75;;;-7.26;35.09
54122;BME280;40029;58.708;50.190;2023-02-23T10:09:04;98569.03;;;-6.84;33.64
54122;BME280;40029;58.708;50.190;2023-02-23T10:23:52;98568.53;;;-6.56;32.78
54122;BME280;40029;58.708;50.190;2023-02-23T10:26:30;98506.56;;;-6.85;33.73
54122;BME280;40029;58.708;50.190;2023-02-23T10:32:01;98572.97;;;-6.36;33.13
54122;BME280;40029;58.708;50.190;2023-02-23T10:34:32;98529.63;;;-6.59;32.98
54122;BME280;40029;58.708;50.190;2023-02-23T10:37:24;98510.88;;;-6.80;33.33
54122;BME280;40029;58.708;50.190;2023-02-23T10:39:55;98508.34;;;-6.76;33.47
54122;BME280;40029;58.708;50.190;2023-02-23T10:42:27;98553.59;;;-6.28;34.11
54122;BME280;40029;58.708;50.190;2023-02-23T10:44:58;98521.97;;;-6.67;32.93
54122;BME280;40029;58.708;50.190;2023-02-23T10:47:31;98554.16;;;-6.55;32.30
54122;BME280;40029;58.708;50.190;2023-02-23T10:50:04;98575.28;;;-6.58;32.34
54122;BME280;40029;58.708;50.190;2023-02-23T10:52:43;98515.66;;;-7.04;32.78
54122;BME280;40029;58.708;50.190;2023-02-23T10:55:21;98507.16;;;-7.09;32.92
54122;BME280;40029;58.708;50.190;2023-02-23T10:58:17;98575.97;;;-6.69;33.43
54122;BME280;40029;58.708;50.190;2023-02-23T11:01:00;98569.06;;;-6.81;33.21
54122;BME280;40029;58.708;50.190;2023-02-23T11:03:37;98572.97;;;-7.09;33.86
54122;BME280;40029;58.708;50.190;2023-02-23T11:06:30;98566.13;;;-7.15;34.04
54122;BME280;40029;58.708;50.190;2023-02-23T11:12:03;98568.22;;;-6.82;33.60
54122;BME280;40029;58.708;50.190;2023-02-23T11:14:42;98510.22;;;-7.32;33.86
54122;BME280;40029;58.708;50.190;2023-02-23T11:17:32;98568.03;;;-6.97;33.59
54122;BME280;40029;58.708;50.190;2023-02-23T11:20:17;98557.94;;;-6.95;33.67
54122;BME280;40029;58.708;50.190;2023-02-23T11:22:53;98528.25;;;-7.07;33.60
54122;BME280;40029;58.708;50.190;2023-02-23T11:25:30;98555.69;;;-6.71;33.36
54122;BME280;40029;58.708;50.190;2023-02-23T11:28:02;98542.84;;;-6.85;33.38
54122;BME280;40029;58.708;50.190;2023-02-23T11:30:35;98505.13;;;-7.36;34.69
54122;BME280;40029;58.708;50.190;2023-02-23T11:33:15;98574.09;;;-6.84;33.37
54122;BME280;40029;58.708;50.190;2023-02-23T11:35:47;98563.84;;;-6.95;33.50
54122;BME280;40029;58.708;50.190;2023-02-23T11:38:46;98549.63;;;-6.85;33.68
54122;BME280;40029;58.708;50.190;2023-02-23T11:41:22;98551.38;;;-6.78;33.65
54122;BME280;40029;58.708;50.190;2023-02-23T11:44:20;98531.94;;;-6.82;33.09
54122;BME280;40029;58.708;50.190;2023-02-23T11:47:16;98514.75;;;-7.09;33.01
54122;BME280;40029;58.708;50.190;2023-02-23T11:49:49;98519.13;;;-6.93;33.00
54122;BME280;40029;58.708;50.190;2023-02-23T11:52:23;98513.13;;;-7.01;33.03
54122;BME280;40029;58.708;50.190;2023-02-23T11:54:59;98565.13;;;-6.58;32.99
54122;BME280;40029;58.708;50.190;2023-02-23T11:57:34;98557.47;;;-6.62;32.97
54122;BME280;40029;58.708;50.190;2023-02-23T12:00:12;98567.63;;;-6.61;32.44
54122;BME280;40029;58.708;50.190;2023-02-23T12:02:50;98495.53;;;-6.89;32.44
54122;BME280;40029;58.708;50.190;2023-02-23T12:05:28;98553.84;;;-6.84;32.29
54122;BME280;40029;58.708;50.190;2023-02-23T12:08:04;98582.63;;;-6.77;32.53
54122;BME280;40029;58.708;50.190;2023-02-23T12:10:40;98525.72;;;-7.06;32.53
54122;BME280;40029;58.708;50.190;2023-02-23T12:15:51;98558.03;;;-6.86;32.33
54122;BME280;40029;58.708;50.190;2023-02-23T12:19:21;98568.28;;;-6.75;32.48
54122;BME280;40029;58.708;50.190;2023-02-23T12:22:19;98578.94;;;-7.01;32.70
54122;BME280;40029;58.708;50.190;2023-02-23T12:27:43;98523.13;;;-7.13;32.50
54122;BME280;40029;58.708;50.190;2023-02-23T12:30:22;98561.00;;;-6.49;32.52
54122;BME280;40029;58.708;50.190;2023-02-23T12:33:11;98576.97;;;-6.57;32.38
54122;BME280;40029;58.708;50.190;2023-02-23T12:36:00;98566.84;;;-6.55;32.27
54122;BME280;40029;58.708;50.190;2023-02-23T12:38:59;98563.75;;;-6.26;31.75
54122;BME280;40029;58.708;50.190;2023-02-23T12:45:04;98559.34;;;-5.38;30.70
54122;BME280;40029;58.708;50.190;2023-02-23T12:47:45;98556.91;;;-5.19;30.59
54122;BME280;40029;58.708;50.190;2023-02-23T12:50:44;98501.75;;;-5.51;30.16
54122;BME280;40029;58.708;50.190;2023-02-23T12:53:38;98556.19;;;-4.94;30.74
54122;BME280;40029;58.708;50.190;2023-02-23T12:59:26;98514.56;;;-5.30;29.25
54122;BME280;40029;58.708;50.190;2023-02-23T13:02:05;98470.50;;;-5.36;30.20
54122;BME280;40029;58.708;50.190;2023-02-23T13:08:20;98566.09;;;-5.43;30.47
54122;BME280;40029;58.708;50.190;2023-02-23T13:13:55;98572.31;;;-6.14;31.04
54122;BME280;40029;58.708;50.190;2023-02-23T13:16:48;98541.50;;;-6.55;31.50
54122;BME280;40029;58.708;50.190;2023-02-23T13:24:57;98556.09;;;-7.07;32.66
54122;BME280;40029;58.708;50.190;2023-02-23T13:27:35;98523.78;;;-7.28;32.97
54122;BME280;40029;58.708;50.190;2023-02-23T13:30:09;98579.16;;;-6.86;32.37
54122;BME280;40029;58.708;50.190;2023-02-23T13:32:41;98542.66;;;-7.03;32.60
54122;BME280;40029;58.708;50.190;2023-02-23T13:35:32;98523.09;;;-7.16;32.59
54122;BME280;40029;58.708;50.190;2023-02-23T13:38:28;98580.88;;;-6.82;32.41
54122;BME280;40029;58.708;50.190;2023-02-23T13:46:48;98537.94;;;-7.42;33.10
54122;BME280;40029;58.708;50.190;2023-02-23T13:49:54;98590.69;;;-7.08;32.84
54122;BME280;40029;58.708;50.190;2023-02-23T13:52:39;98599.91;;;-7.13;33.35
54122;BME280;40029;58.708;50.190;2023-02-23T13:55:44;98603.22;;;-7.17;33.14
54122;BME280;40029;58.708;50.190;2023-02-23T13:58:23;98593.78;;;-7.30;32.85
54122;BME280;40029;58.708;50.190;2023-02-23T14:01:36;98600.41;;;-7.37;34.04
54122;BME280;40029;58.708;50.190;2023-02-23T14:04:20;98555.03;;;-7.84;34.60
54122;BME280;40029;58.708;50.190;2023-02-23T14:09:46;98589.78;;;-7.70;34.82
54122;BME280;40029;58.708;50.190;2023-02-23T14:12:49;98605.00;;;-7.67;35.25
54122;BME280;40029;58.708;50.190;2023-02-23T14:16:06;98596.31;;;-7.85;35.27
54122;BME280;40029;58.708;50.190;2023-02-23T14:19:05;98608.19;;;-7.77;35.40
54122;BME280;40029;58.708;50.190;2023-02-23T14:22:01;98596.94;;;-7.96;35.29
54122;BME280;40029;58.708;50.190;2023-02-23T14:24:34;98560.28;;;-8.23;35.12
54122;BME280;40029;58.708;50.190;2023-02-23T14:27:34;98614.59;;;-7.99;35.94
54122;BME280;40029;58.708;50.190;2023-02-23T14:32:44;98597.56;;;-8.11;35.69
54122;BME280;40029;58.708;50.190;2023-02-23T14:38:10;98631.34;;;-8.05;35.81
54122;BME280;40029;58.708;50.190;2023-02-23T14:40:44;98609.16;;;-8.21;36.02
54122;BME280;40029;58.708;50.190;2023-02-23T14:46:16;98599.88;;;-8.23;35.68
54122;BME280;40029;58.708;50.190;2023-02-23T14:49:00;98623.53;;;-8.18;35.87
54122;BME280;40029;58.708;50.190;2023-02-23T14:51:39;98615.75;;;-8.29;36.18
54122;BME280;40029;58.708;50.190;2023-02-23T14:54:28;98625.06;;;-8.28;36.11
54122;BME280;40029;58.708;50.190;2023-02-23T14:57:03;98565.47;;;-8.64;35.83
54122;BME280;40029;58.708;50.190;2023-02-23T14:59:59;98635.97;;;-8.29;36.31
54122;BME280;40029;58.708;50.190;2023-02-23T15:03:01;98585.72;;;-8.62;36.00
54122;BME280;40029;58.708;50.190;2023-02-23T15:05:41;98631.66;;;-8.35;36.34
54122;BME280;40029;58.708;50.190;2023-02-23T15:08:17;98617.88;;;-8.52;36.56
54122;BME280;40029;58.708;50.190;2023-02-23T15:10:58;98620.34;;;-8.55;36.93
54122;BME280;40029;58.708;50.190;2023-02-23T15:13:35;98634.63;;;-8.57;37.35
54122;BME280;40029;58.708;50.190;2023-02-23T15:16:15;98603.25;;;-8.70;36.42
54122;BME280;40029;58.708;50.190;2023-02-23T15:18:48;98638.78;;;-8.59;37.54
54122;BME280;40029;58.708;50.190;2023-02-23T15:21:22;98640.44;;;-8.61;36.76
54122;BME280;40029;58.708;50.190;2023-02-23T15:24:08;98639.44;;;-8.68;38.15
54122;BME280;40029;58.708;50.190;2023-02-23T15:26:58;98594.31;;;-8.95;37.09
54122;BME280;40029;58.708;50.190;2023-02-23T15:29:32;98590.78;;;-9.03;37.44